sensor_id;sensor_type;location;lat;lon;timestamp;P1;durP1;ratioP1;P2;durP2;ratioP2
26484;SDS011;18083;50.560;7.262;2023-04-15T00:00:14;5.90;;;3.20;;
26484;SDS011;18083;50.560;7.262;2023-04-15T00:02:42;9.47;;;2.87;;
26484;SDS011;18083;50.560;7.262;2023-04-15T00:05:09;4.67;;;3.00;;
26484;SDS011;18083;50.560;7.262;2023-04-15T00:07:36;7.27;;;2.70;;
26484;SDS011;18083;50.560;7.262;2023-04-15T00:10:04;8.17;;;3.43;;
26484;SDS011;18083;50.560;7.262;2023-04-15T00:12:31;8.13;;;3.23;;
26484;SDS011;18083;50.560;7.262;2023-04-15T00:14:58;7.03;;;3.07;;
26484;SDS011;18083;50.560;7.262;2023-04-15T00:17:26;2.93;;;2.43;;
26484;SDS011;18083;50.560;7.262;2023-04-15T00:19:53;6.57;;;2.90;;
26484;SDS011;18083;50.560;7.262;2023-04-15T00:22:20;5.83;;;2.90;;
26484;SDS011;18083;50.560;7.262;2023-04-15T00:24:48;7.17;;;3.47;;
26484;SDS011;18083;50.560;7.262;2023-04-15T00:27:15;5.80;;;2.90;;
26484;SDS011;18083;50.560;7.262;2023-04-15T00:29:42;4.70;;;2.47;;
26484;SDS011;18083;50.560;7.262;2023-04-15T00:32:10;4.87;;;2.27;;
26484;SDS011;18083;50.560;7.262;2023-04-15T00:34:37;3.23;;;2.20;;
26484;SDS011;18083;50.560;7.262;2023-04-15T00:37:04;4.03;;;2.13;;
26484;SDS011;18083;50.560;7.262;2023-04-15T00:39:31;6.80;;;2.37;;
26484;SDS011;18083;50.560;7.262;2023-04-15T00:41:59;4.73;;;3.03;;
26484;SDS011;18083;50.560;7.262;2023-04-15T00:44:26;6.07;;;2.70;;
26484;SDS011;18083;50.560;7.262;2023-04-15T00:46:54;4.50;;;2.13;;
26484;SDS011;18083;50.560;7.262;2023-04-15T00:49:21;5.17;;;2.20;;
26484;SDS011;18083;50.560;7.262;2023-04-15T00:51:49;3.63;;;2.10;;
26484;SDS011;18083;50.560;7.262;2023-04-15T00:54:16;4.97;;;2.53;;
26484;SDS011;18083;50.560;7.262;2023-04-15T00:56:44;4.13;;;1.73;;
26484;SDS011;18083;50.560;7.262;2023-04-15T00:59:13;11.87;;;2.70;;
26484;SDS011;18083;50.560;7.262;2023-04-15T01:01:40;5.97;;;2.83;;
26484;SDS011;18083;50.560;7.262;2023-04-15T01:04:07;7.63;;;2.37;;
26484;SDS011;18083;50.560;7.262;2023-04-15T01:06:36;5.93;;;2.27;;
26484;SDS011;18083;50.560;7.262;2023-04-15T01:09:04;7.10;;;2.60;;
26484;SDS011;18083;50.560;7.262;2023-04-15T01:11:31;4.53;;;2.50;;
26484;SDS011;18083;50.560;7.262;2023-04-15T01:13:59;3.77;;;2.83;;
26484;SDS011;18083;50.560;7.262;2023-04-15T01:16:27;7.00;;;2.43;;
26484;SDS011;18083;50.560;7.262;2023-04-15T01:18:54;1.77;;;1.50;;
26484;SDS011;18083;50.560;7.262;2023-04-15T01:21:22;5.67;;;2.10;;
26484;SDS011;18083;50.560;7.262;2023-04-15T01:23:49;4.27;;;2.00;;
26484;SDS011;18083;50.560;7.262;2023-04-15T01:26:17;2.80;;;2.23;;
26484;SDS011;18083;50.560;7.262;2023-04-15T01:28:45;7.83;;;2.20;;
26484;SDS011;18083;50.560;7.262;2023-04-15T01:31:13;7.67;;;2.80;;
26484;SDS011;18083;50.560;7.262;2023-04-15T01:33:41;5.17;;;2.30;;
26484;SDS011;18083;50.560;7.262;2023-04-15T01:36:09;5.23;;;2.17;;
26484;SDS011;18083;50.560;7.262;2023-04-15T01:38:36;3.83;;;2.47;;
26484;SDS011;18083;50.560;7.262;2023-04-15T01:41:03;4.20;;;1.97;;
26484;SDS011;18083;50.560;7.262;2023-04-15T01:43:35;5.77;;;2.10;;
26484;SDS011;18083;50.560;7.262;2023-04-15T01:46:03;1.87;;;1.73;;
26484;SDS011;18083;50.560;7.262;2023-04-15T01:48:30;3.23;;;2.20;;
26484;SDS011;18083;50.560;7.262;2023-04-15T01:50:58;5.17;;;2.20;;
26484;SDS011;18083;50.560;7.262;2023-04-15T01:53:25;2.50;;;1.80;;
26484;SDS011;18083;50.560;7.262;2023-04-15T01:55:53;7.30;;;2.23;;
26484;SDS011;18083;50.560;7.262;2023-04-15T01:58:20;5.30;;;1.97;;
26484;SDS011;18083;50.560;7.262;2023-04-15T02:00:48;8.00;;;2.67;;
26484;SDS011;18083;50.560;7.262;2023-04-15T02:03:15;6.17;;;2.63;;
26484;SDS011;18083;50.560;7.262;2023-04-15T02:05:43;4.47;;;2.37;;
26484;SDS011;18083;50.560;7.262;2023-04-15T02:08:10;4.27;;;2.30;;
26484;SDS011;18083;50.560;7.262;2023-04-15T02:10:37;4.87;;;2.60;;
26484;SDS011;18083;50.560;7.262;2023-04-15T02:13:05;2.73;;;1.93;;
26484;SDS011;18083;50.560;7.262;2023-04-15T02:15:32;5.53;;;2.00;;
26484;SDS011;18083;50.560;7.262;2023-04-15T02:17:59;5.47;;;2.30;;
26484;SDS011;18083;50.560;7.262;2023-04-15T02:20:27;3.77;;;2.43;;
26484;SDS011;18083;50.560;7.262;2023-04-15T02:23:00;4.77;;;2.50;;
26484;SDS011;18083;50.560;7.262;2023-04-15T02:25:24;3.90;;;2.00;;
26484;SDS011;18083;50.560;7.262;2023-04-15T02:27:52;4.57;;;2.23;;
26484;SDS011;18083;50.560;7.262;2023-04-15T02:30:19;4.27;;;2.33;;
26484;SDS011;18083;50.560;7.262;2023-04-15T02:32:48;4.87;;;1.73;;
26484;SDS011;18083;50.560;7.262;2023-04-15T02:35:15;5.13;;;2.43;;
26484;SDS011;18083;50.560;7.262;2023-04-15T02:37:44;6.80;;;2.10;;
26484;SDS011;18083;50.560;7.262;2023-04-15T02:40:11;6.57;;;2.60;;
26484;SDS011;18083;50.560;7.262;2023-04-15T02:42:39;3.60;;;2.30;;
26484;SDS011;18083;50.560;7.262;2023-04-15T02:45:07;4.33;;;2.27;;
26484;SDS011;18083;50.560;7.262;2023-04-15T02:47:34;4.80;;;1.87;;
26484;SDS011;18083;50.560;7.262;2023-04-15T02:50:02;3.67;;;2.03;;
26484;SDS011;18083;50.560;7.262;2023-04-15T02:52:29;7.23;;;2.40;;
26484;SDS011;18083;50.560;7.262;2023-04-15T02:55:00;2.23;;;2.03;;
26484;SDS011;18083;50.560;7.262;2023-04-15T02:57:27;3.33;;;2.37;;
26484;SDS011;18083;50.560;7.262;2023-04-15T02:59:55;4.70;;;1.87;;
26484;SDS011;18083;50.560;7.262;2023-04-15T03:02:22;4.07;;;1.93;;
26484;SDS011;18083;50.560;7.262;2023-04-15T03:04:50;11.90;;;2.43;;
26484;SDS011;18083;50.560;7.262;2023-04-15T03:07:18;2.90;;;1.80;;
26484;SDS011;18083;50.560;7.262;2023-04-15T03:09:46;3.30;;;1.93;;
26484;SDS011;18083;50.560;7.262;2023-04-15T03:12:13;3.77;;;2.23;;
26484;SDS011;18083;50.560;7.262;2023-04-15T03:14:40;4.77;;;2.40;;
26484;SDS011;18083;50.560;7.262;2023-04-15T03:17:08;5.23;;;3.10;;
26484;SDS011;18083;50.560;7.262;2023-04-15T03:19:35;4.63;;;2.33;;
26484;SDS011;18083;50.560;7.262;2023-04-15T03:22:02;4.57;;;2.83;;
26484;SDS011;18083;50.560;7.262;2023-04-15T03:24:30;5.83;;;2.90;;
26484;SDS011;18083;50.560;7.262;2023-04-15T03:26:57;3.07;;;2.60;;
26484;SDS011;18083;50.560;7.262;2023-04-15T03:29:24;3.63;;;2.73;;
26484;SDS011;18083;50.560;7.262;2023-04-15T03:31:51;4.30;;;3.07;;
26484;SDS011;18083;50.560;7.262;2023-04-15T03:34:19;5.73;;;2.93;;
26484;SDS011;18083;50.560;7.262;2023-04-15T03:36:46;3.77;;;2.40;;
26484;SDS011;18083;50.560;7.262;2023-04-15T03:39:13;5.27;;;3.73;;
26484;SDS011;18083;50.560;7.262;2023-04-15T03:41:41;2.67;;;2.40;;
26484;SDS011;18083;50.560;7.262;2023-04-15T03:44:08;6.50;;;2.20;;
26484;SDS011;18083;50.560;7.262;2023-04-15T03:46:35;3.80;;;1.80;;
26484;SDS011;18083;50.560;7.262;2023-04-15T03:49:05;6.17;;;2.23;;
26484;SDS011;18083;50.560;7.262;2023-04-15T03:51:31;2.07;;;1.80;;
26484;SDS011;18083;50.560;7.262;2023-04-15T03:53:58;6.37;;;1.80;;
26484;SDS011;18083;50.560;7.262;2023-04-15T03:56:27;2.93;;;1.73;;
26484;SDS011;18083;50.560;7.262;2023-04-15T03:58:54;5.87;;;1.77;;
26484;SDS011;18083;50.560;7.262;2023-04-15T04:01:21;6.47;;;2.13;;
26484;SDS011;18083;50.560;7.262;2023-04-15T04:03:49;2.37;;;1.67;;
26484;SDS011;18083;50.560;7.262;2023-04-15T04:06:16;4.90;;;2.20;;
26484;SDS011;18083;50.560;7.262;2023-04-15T04:08:43;4.17;;;2.23;;
26484;SDS011;18083;50.560;7.262;2023-04-15T04:11:11;6.67;;;2.47;;
26484;SDS011;18083;50.560;7.262;2023-04-15T04:13:38;3.03;;;1.67;;
26484;SDS011;18083;50.560;7.262;2023-04-15T04:16:06;5.13;;;1.77;;
26484;SDS011;18083;50.560;7.262;2023-04-15T04:18:33;3.00;;;2.13;;
26484;SDS011;18083;50.560;7.262;2023-04-15T04:21:00;2.67;;;1.37;;
26484;SDS011;18083;50.560;7.262;2023-04-15T04:23:28;3.57;;;1.53;;
26484;SDS011;18083;50.560;7.262;2023-04-15T04:25:55;5.60;;;1.80;;
26484;SDS011;18083;50.560;7.262;2023-04-15T04:28:22;2.20;;;1.77;;
26484;SDS011;18083;50.560;7.262;2023-04-15T04:30:50;6.00;;;1.97;;
26484;SDS011;18083;50.560;7.262;2023-04-15T04:33:17;2.30;;;2.07;;
26484;SDS011;18083;50.560;7.262;2023-04-15T04:35:44;4.30;;;2.20;;
26484;SDS011;18083;50.560;7.262;2023-04-15T04:38:12;6.67;;;2.40;;
26484;SDS011;18083;50.560;7.262;2023-04-15T04:40:39;3.93;;;2.37;;
26484;SDS011;18083;50.560;7.262;2023-04-15T04:43:06;4.90;;;2.73;;
26484;SDS011;18083;50.560;7.262;2023-04-15T04:45:34;3.70;;;2.30;;
26484;SDS011;18083;50.560;7.262;2023-04-15T04:48:01;3.53;;;2.27;;
26484;SDS011;18083;50.560;7.262;2023-04-15T04:50:30;5.03;;;2.07;;
26484;SDS011;18083;50.560;7.262;2023-04-15T04:52:58;6.67;;;2.63;;
26484;SDS011;18083;50.560;7.262;2023-04-15T04:58:29;7.63;;;2.30;;
26484;SDS011;18083;50.560;7.262;2023-04-15T05:00:56;6.37;;;2.27;;
26484;SDS011;18083;50.560;7.262;2023-04-15T05:03:23;3.70;;;2.57;;
26484;SDS011;18083;50.560;7.262;2023-04-15T05:05:50;7.17;;;2.87;;
26484;SDS011;18083;50.560;7.262;2023-04-15T05:08:18;5.13;;;2.57;;
26484;SDS011;18083;50.560;7.262;2023-04-15T05:10:45;4.03;;;2.20;;
26484;SDS011;18083;50.560;7.262;2023-04-15T05:13:13;5.80;;;2.47;;
26484;SDS011;18083;50.560;7.262;2023-04-15T05:15:40;5.90;;;2.50;;
26484;SDS011;18083;50.560;7.262;2023-04-15T05:18:08;8.17;;;2.20;;
26484;SDS011;18083;50.560;7.262;2023-04-15T05:20:35;3.07;;;2.13;;
26484;SDS011;18083;50.560;7.262;2023-04-15T05:23:03;7.20;;;2.67;;
26484;SDS011;18083;50.560;7.262;2023-04-15T05:25:30;8.90;;;3.03;;
26484;SDS011;18083;50.560;7.262;2023-04-15T05:27:57;8.47;;;2.70;;
26484;SDS011;18083;50.560;7.262;2023-04-15T05:30:25;2.73;;;2.23;;
26484;SDS011;18083;50.560;7.262;2023-04-15T05:32:52;3.70;;;2.30;;
26484;SDS011;18083;50.560;7.262;2023-04-15T05:35:20;5.23;;;2.60;;
26484;SDS011;18083;50.560;7.262;2023-04-15T05:37:47;5.13;;;2.57;;
26484;SDS011;18083;50.560;7.262;2023-04-15T05:40:14;5.60;;;2.57;;
26484;SDS011;18083;50.560;7.262;2023-04-15T05:42:42;4.17;;;2.50;;
26484;SDS011;18083;50.560;7.262;2023-04-15T05:45:09;4.33;;;2.70;;
26484;SDS011;18083;50.560;7.262;2023-04-15T05:47:37;6.20;;;2.60;;
26484;SDS011;18083;50.560;7.262;2023-04-15T05:50:04;4.43;;;3.23;;
26484;SDS011;18083;50.560;7.262;2023-04-15T05:52:32;3.13;;;2.57;;
26484;SDS011;18083;50.560;7.262;2023-04-15T05:54:59;7.23;;;5.70;;
26484;SDS011;18083;50.560;7.262;2023-04-15T05:57:27;10.37;;;5.83;;
26484;SDS011;18083;50.560;7.262;2023-04-15T05:59:54;20.17;;;9.43;;
26484;SDS011;18083;50.560;7.262;2023-04-15T06:02:22;19.67;;;9.80;;
26484;SDS011;18083;50.560;7.262;2023-04-15T06:04:49;14.87;;;8.87;;
26484;SDS011;18083;50.560;7.262;2023-04-15T06:07:17;5.33;;;3.33;;
26484;SDS011;18083;50.560;7.262;2023-04-15T06:09:44;7.53;;;4.20;;
26484;SDS011;18083;50.560;7.262;2023-04-15T06:12:12;8.27;;;3.33;;
26484;SDS011;18083;50.560;7.262;2023-04-15T06:14:39;6.90;;;3.27;;
26484;SDS011;18083;50.560;7.262;2023-04-15T06:17:06;8.57;;;3.90;;
26484;SDS011;18083;50.560;7.262;2023-04-15T06:19:34;6.00;;;3.63;;
26484;SDS011;18083;50.560;7.262;2023-04-15T06:22:02;5.37;;;3.37;;
26484;SDS011;18083;50.560;7.262;2023-04-15T06:24:29;6.50;;;2.77;;
26484;SDS011;18083;50.560;7.262;2023-04-15T06:26:58;7.33;;;3.90;;
26484;SDS011;18083;50.560;7.262;2023-04-15T06:29:25;3.93;;;2.73;;
26484;SDS011;18083;50.560;7.262;2023-04-15T06:31:52;3.53;;;3.03;;
26484;SDS011;18083;50.560;7.262;2023-04-15T06:34:21;9.27;;;3.43;;
26484;SDS011;18083;50.560;7.262;2023-04-15T06:36:48;5.37;;;3.73;;
26484;SDS011;18083;50.560;7.262;2023-04-15T06:39:16;6.37;;;3.40;;
26484;SDS011;18083;50.560;7.262;2023-04-15T06:41:43;6.43;;;3.47;;
26484;SDS011;18083;50.560;7.262;2023-04-15T06:44:10;6.93;;;3.77;;
26484;SDS011;18083;50.560;7.262;2023-04-15T06:46:37;3.70;;;2.13;;
26484;SDS011;18083;50.560;7.262;2023-04-15T06:49:05;4.27;;;2.27;;
26484;SDS011;18083;50.560;7.262;2023-04-15T06:51:33;4.13;;;2.00;;
26484;SDS011;18083;50.560;7.262;2023-04-15T06:54:01;7.40;;;2.73;;
26484;SDS011;18083;50.560;7.262;2023-04-15T06:56:34;6.00;;;2.80;;
26484;SDS011;18083;50.560;7.262;2023-04-15T06:58:59;5.23;;;2.47;;
26484;SDS011;18083;50.560;7.262;2023-04-15T07:01:26;5.97;;;2.40;;
26484;SDS011;18083;50.560;7.262;2023-04-15T07:03:54;2.73;;;2.10;;
26484;SDS011;18083;50.560;7.262;2023-04-15T07:06:21;5.20;;;2.07;;
26484;SDS011;18083;50.560;7.262;2023-04-15T07:08:48;5.22;;;1.95;;
26484;SDS011;18083;50.560;7.262;2023-04-15T07:11:16;3.53;;;2.23;;
26484;SDS011;18083;50.560;7.262;2023-04-15T07:13:43;4.17;;;2.45;;
26484;SDS011;18083;50.560;7.262;2023-04-15T07:16:10;6.60;;;1.95;;
26484;SDS011;18083;50.560;7.262;2023-04-15T07:18:38;9.93;;;2.58;;
26484;SDS011;18083;50.560;7.262;2023-04-15T07:21:05;4.65;;;2.83;;
26484;SDS011;18083;50.560;7.262;2023-04-15T07:23:32;4.33;;;2.50;;
26484;SDS011;18083;50.560;7.262;2023-04-15T07:26:00;5.33;;;3.00;;
26484;SDS011;18083;50.560;7.262;2023-04-15T07:28:27;4.65;;;2.90;;
26484;SDS011;18083;50.560;7.262;2023-04-15T07:30:54;4.83;;;2.83;;
26484;SDS011;18083;50.560;7.262;2023-04-15T07:33:24;5.92;;;3.52;;
26484;SDS011;18083;50.560;7.262;2023-04-15T07:35:51;10.00;;;3.10;;
26484;SDS011;18083;50.560;7.262;2023-04-15T07:38:19;7.12;;;2.85;;
26484;SDS011;18083;50.560;7.262;2023-04-15T07:40:46;7.67;;;3.30;;
26484;SDS011;18083;50.560;7.262;2023-04-15T07:43:14;5.20;;;2.77;;
26484;SDS011;18083;50.560;7.262;2023-04-15T07:45:41;5.53;;;2.63;;
26484;SDS011;18083;50.560;7.262;2023-04-15T07:48:08;7.95;;;3.67;;
26484;SDS011;18083;50.560;7.262;2023-04-15T07:50:36;6.95;;;2.65;;
26484;SDS011;18083;50.560;7.262;2023-04-15T07:53:03;4.65;;;2.75;;
26484;SDS011;18083;50.560;7.262;2023-04-15T07:55:31;7.22;;;3.17;;
26484;SDS011;18083;50.560;7.262;2023-04-15T07:57:58;4.50;;;2.45;;
26484;SDS011;18083;50.560;7.262;2023-04-15T08:00:26;6.87;;;2.70;;
26484;SDS011;18083;50.560;7.262;2023-04-15T08:02:55;6.33;;;2.85;;
26484;SDS011;18083;50.560;7.262;2023-04-15T08:05:24;4.42;;;2.62;;
26484;SDS011;18083;50.560;7.262;2023-04-15T08:07:51;4.25;;;2.10;;
26484;SDS011;18083;50.560;7.262;2023-04-15T08:10:19;5.87;;;2.67;;
26484;SDS011;18083;50.560;7.262;2023-04-15T08:12:46;4.80;;;2.83;;
26484;SDS011;18083;50.560;7.262;2023-04-15T08:15:14;5.53;;;2.77;;
26484;SDS011;18083;50.560;7.262;2023-04-15T08:17:42;6.15;;;2.85;;
26484;SDS011;18083;50.560;7.262;2023-04-15T08:20:09;5.83;;;2.40;;
26484;SDS011;18083;50.560;7.262;2023-04-15T08:22:37;5.22;;;2.80;;
26484;SDS011;18083;50.560;7.262;2023-04-15T08:25:04;4.87;;;2.72;;
26484;SDS011;18083;50.560;7.262;2023-04-15T08:27:32;4.20;;;2.80;;
26484;SDS011;18083;50.560;7.262;2023-04-15T08:29:59;5.65;;;3.10;;
26484;SDS011;18083;50.560;7.262;2023-04-15T08:32:27;8.48;;;3.20;;
26484;SDS011;18083;50.560;7.262;2023-04-15T08:34:54;3.22;;;2.47;;
26484;SDS011;18083;50.560;7.262;2023-04-15T08:37:21;8.55;;;3.08;;
26484;SDS011;18083;50.560;7.262;2023-04-15T08:39:48;8.50;;;3.25;;
26484;SDS011;18083;50.560;7.262;2023-04-15T08:42:16;6.47;;;3.45;;
26484;SDS011;18083;50.560;7.262;2023-04-15T08:44:44;10.05;;;4.12;;
26484;SDS011;18083;50.560;7.262;2023-04-15T08:47:12;5.15;;;3.30;;
26484;SDS011;18083;50.560;7.262;2023-04-15T08:49:43;6.47;;;4.65;;
26484;SDS011;18083;50.560;7.262;2023-04-15T08:54:57;6.20;;;4.50;;
26484;SDS011;18083;50.560;7.262;2023-04-15T08:57:26;5.08;;;3.60;;
26484;SDS011;18083;50.560;7.262;2023-04-15T08:59:57;3.92;;;3.52;;
26484;SDS011;18083;50.560;7.262;2023-04-15T09:02:24;6.22;;;3.10;;
26484;SDS011;18083;50.560;7.262;2023-04-15T09:04:52;4.17;;;1.90;;
26484;SDS011;18083;50.560;7.262;2023-04-15T09:07:20;6.22;;;3.22;;
26484;SDS011;18083;50.560;7.262;2023-04-15T09:09:47;3.22;;;2.70;;
26484;SDS011;18083;50.560;7.262;2023-04-15T09:12:14;4.87;;;2.40;;
26484;SDS011;18083;50.560;7.262;2023-04-15T09:14:44;4.70;;;2.67;;
26484;SDS011;18083;50.560;7.262;2023-04-15T09:17:11;4.80;;;3.37;;
26484;SDS011;18083;50.560;7.262;2023-04-15T09:19:38;4.83;;;3.47;;
26484;SDS011;18083;50.560;7.262;2023-04-15T09:22:05;5.17;;;4.15;;
26484;SDS011;18083;50.560;7.262;2023-04-15T09:24:38;6.22;;;3.92;;
26484;SDS011;18083;50.560;7.262;2023-04-15T09:27:02;5.47;;;4.53;;
26484;SDS011;18083;50.560;7.262;2023-04-15T09:29:30;6.70;;;4.42;;
26484;SDS011;18083;50.560;7.262;2023-04-15T09:32:16;6.17;;;3.70;;
26484;SDS011;18083;50.560;7.262;2023-04-15T09:34:35;6.35;;;3.92;;
26484;SDS011;18083;50.560;7.262;2023-04-15T09:37:03;4.47;;;4.08;;
26484;SDS011;18083;50.560;7.262;2023-04-15T09:39:49;6.12;;;4.42;;
26484;SDS011;18083;50.560;7.262;2023-04-15T09:42:17;5.47;;;3.90;;
26484;SDS011;18083;50.560;7.262;2023-04-15T09:44:52;6.35;;;4.78;;
26484;SDS011;18083;50.560;7.262;2023-04-15T09:47:28;7.47;;;4.80;;
26484;SDS011;18083;50.560;7.262;2023-04-15T09:49:56;12.07;;;5.83;;
26484;SDS011;18083;50.560;7.262;2023-04-15T09:52:24;9.73;;;5.28;;
26484;SDS011;18083;50.560;7.262;2023-04-15T09:54:53;4.85;;;4.20;;
26484;SDS011;18083;50.560;7.262;2023-04-15T09:57:23;4.33;;;2.55;;
26484;SDS011;18083;50.560;7.262;2023-04-15T09:59:50;7.05;;;2.30;;
26484;SDS011;18083;50.560;7.262;2023-04-15T10:05:04;3.15;;;1.67;;
26484;SDS011;18083;50.560;7.262;2023-04-15T10:07:32;1.85;;;1.62;;
26484;SDS011;18083;50.560;7.262;2023-04-15T10:10:00;1.67;;;1.55;;
26484;SDS011;18083;50.560;7.262;2023-04-15T10:15:24;2.30;;;1.37;;
26484;SDS011;18083;50.560;7.262;2023-04-15T10:17:53;3.62;;;1.12;;
26484;SDS011;18083;50.560;7.262;2023-04-15T10:20:22;4.25;;;1.80;;
26484;SDS011;18083;50.560;7.262;2023-04-15T10:22:50;1.85;;;1.12;;
26484;SDS011;18083;50.560;7.262;2023-04-15T10:25:17;1.55;;;1.35;;
26484;SDS011;18083;50.560;7.262;2023-04-15T10:27:45;1.22;;;1.07;;
26484;SDS011;18083;50.560;7.262;2023-04-15T10:30:14;1.22;;;1.12;;
26484;SDS011;18083;50.560;7.262;2023-04-15T10:32:41;1.27;;;1.15;;
26484;SDS011;18083;50.560;7.262;2023-04-15T10:35:08;4.10;;;1.10;;
26484;SDS011;18083;50.560;7.262;2023-04-15T10:37:37;1.37;;;1.00;;
26484;SDS011;18083;50.560;7.262;2023-04-15T10:40:23;1.45;;;0.95;;
26484;SDS011;18083;50.560;7.262;2023-04-15T10:42:53;2.95;;;1.17;;
26484;SDS011;18083;50.560;7.262;2023-04-15T10:45:20;3.33;;;1.30;;
26484;SDS011;18083;50.560;7.262;2023-04-15T10:47:51;2.67;;;1.15;;
26484;SDS011;18083;50.560;7.262;2023-04-15T10:50:19;3.75;;;1.62;;
26484;SDS011;18083;50.560;7.262;2023-04-15T10:52:49;2.22;;;1.40;;
26484;SDS011;18083;50.560;7.262;2023-04-15T10:55:20;3.52;;;1.25;;
26484;SDS011;18083;50.560;7.262;2023-04-15T10:57:51;1.02;;;0.93;;
26484;SDS011;18083;50.560;7.262;2023-04-15T11:00:19;1.12;;;1.02;;
26484;SDS011;18083;50.560;7.262;2023-04-15T11:02:50;0.93;;;0.82;;
26484;SDS011;18083;50.560;7.262;2023-04-15T11:05:16;1.75;;;0.85;;
26484;SDS011;18083;50.560;7.262;2023-04-15T11:07:58;3.37;;;1.10;;
26484;SDS011;18083;50.560;7.262;2023-04-15T11:12:59;2.30;;;1.57;;
26484;SDS011;18083;50.560;7.262;2023-04-15T11:15:32;1.77;;;1.45;;
26484;SDS011;18083;50.560;7.262;2023-04-15T11:18:18;1.62;;;1.22;;
26484;SDS011;18083;50.560;7.262;2023-04-15T11:20:51;1.57;;;1.30;;
26484;SDS011;18083;50.560;7.262;2023-04-15T11:23:20;1.85;;;1.30;;
26484;SDS011;18083;50.560;7.262;2023-04-15T11:25:47;1.77;;;1.40;;
26484;SDS011;18083;50.560;7.262;2023-04-15T11:28:15;1.35;;;0.95;;
26484;SDS011;18083;50.560;7.262;2023-04-15T11:30:42;4.42;;;1.55;;
26484;SDS011;18083;50.560;7.262;2023-04-15T11:33:10;2.27;;;1.00;;
26484;SDS011;18083;50.560;7.262;2023-04-15T11:35:37;2.65;;;1.45;;
26484;SDS011;18083;50.560;7.262;2023-04-15T11:38:10;1.80;;;1.40;;
26484;SDS011;18083;50.560;7.262;2023-04-15T11:40:39;3.65;;;1.92;;
26484;SDS011;18083;50.560;7.262;2023-04-15T11:45:36;2.62;;;2.15;;
26484;SDS011;18083;50.560;7.262;2023-04-15T11:48:09;1.85;;;1.47;;
26484;SDS011;18083;50.560;7.262;2023-04-15T11:50:37;2.08;;;1.85;;
26484;SDS011;18083;50.560;7.262;2023-04-15T11:53:07;2.52;;;1.92;;
26484;SDS011;18083;50.560;7.262;2023-04-15T11:55:41;2.70;;;1.95;;
26484;SDS011;18083;50.560;7.262;2023-04-15T11:58:16;2.75;;;2.05;;
26484;SDS011;18083;50.560;7.262;2023-04-15T12:00:40;4.40;;;2.87;;
26484;SDS011;18083;50.560;7.262;2023-04-15T12:03:11;2.85;;;2.62;;
26484;SDS011;18083;50.560;7.262;2023-04-15T12:08:24;2.33;;;1.90;;
26484;SDS011;18083;50.560;7.262;2023-04-15T12:10:51;2.25;;;2.05;;
26484;SDS011;18083;50.560;7.262;2023-04-15T12:13:20;2.55;;;2.27;;
26484;SDS011;18083;50.560;7.262;2023-04-15T12:15:48;3.10;;;2.52;;
26484;SDS011;18083;50.560;7.262;2023-04-15T12:18:16;3.75;;;2.75;;
26484;SDS011;18083;50.560;7.262;2023-04-15T12:20:43;2.75;;;2.42;;
26484;SDS011;18083;50.560;7.262;2023-04-15T12:23:11;3.25;;;2.45;;
26484;SDS011;18083;50.560;7.262;2023-04-15T12:25:38;2.92;;;2.42;;
26484;SDS011;18083;50.560;7.262;2023-04-15T12:28:11;3.80;;;2.40;;
26484;SDS011;18083;50.560;7.262;2023-04-15T12:30:47;2.98;;;2.65;;
26484;SDS011;18083;50.560;7.262;2023-04-15T12:33:07;3.87;;;2.83;;
26484;SDS011;18083;50.560;7.262;2023-04-15T12:35:35;3.12;;;2.65;;
26484;SDS011;18083;50.560;7.262;2023-04-15T12:38:02;3.15;;;2.77;;
26484;SDS011;18083;50.560;7.262;2023-04-15T12:40:30;3.75;;;2.62;;
26484;SDS011;18083;50.560;7.262;2023-04-15T12:42:57;2.72;;;2.52;;
26484;SDS011;18083;50.560;7.262;2023-04-15T12:45:24;3.60;;;2.40;;
26484;SDS011;18083;50.560;7.262;2023-04-15T12:47:52;2.20;;;2.00;;
26484;SDS011;18083;50.560;7.262;2023-04-15T12:50:19;2.33;;;2.12;;
26484;SDS011;18083;50.560;7.262;2023-04-15T12:52:46;2.33;;;2.12;;
26484;SDS011;18083;50.560;7.262;2023-04-15T12:55:14;2.12;;;1.77;;
26484;SDS011;18083;50.560;7.262;2023-04-15T12:57:42;1.72;;;1.62;;
26484;SDS011;18083;50.560;7.262;2023-04-15T13:00:09;1.80;;;1.70;;
26484;SDS011;18083;50.560;7.262;2023-04-15T13:02:37;2.22;;;2.08;;
26484;SDS011;18083;50.560;7.262;2023-04-15T13:05:04;2.37;;;1.98;;
26484;SDS011;18083;50.560;7.262;2023-04-15T13:07:32;3.00;;;2.30;;
26484;SDS011;18083;50.560;7.262;2023-04-15T13:09:59;2.10;;;2.00;;
26484;SDS011;18083;50.560;7.262;2023-04-15T13:12:26;2.98;;;2.67;;
26484;SDS011;18083;50.560;7.262;2023-04-15T13:14:54;2.80;;;2.40;;
26484;SDS011;18083;50.560;7.262;2023-04-15T13:17:21;3.58;;;3.10;;
26484;SDS011;18083;50.560;7.262;2023-04-15T13:19:48;3.12;;;2.50;;
26484;SDS011;18083;50.560;7.262;2023-04-15T13:22:16;3.15;;;2.80;;
26484;SDS011;18083;50.560;7.262;2023-04-15T13:24:43;3.95;;;3.27;;
26484;SDS011;18083;50.560;7.262;2023-04-15T13:27:10;4.05;;;3.33;;
26484;SDS011;18083;50.560;7.262;2023-04-15T13:29:38;4.40;;;2.80;;
26484;SDS011;18083;50.560;7.262;2023-04-15T13:32:05;3.27;;;2.72;;
26484;SDS011;18083;50.560;7.262;2023-04-15T13:34:32;3.22;;;2.92;;
26484;SDS011;18083;50.560;7.262;2023-04-15T13:37:05;2.95;;;2.72;;
26484;SDS011;18083;50.560;7.262;2023-04-15T13:39:28;3.12;;;2.80;;
26484;SDS011;18083;50.560;7.262;2023-04-15T13:41:56;4.83;;;2.70;;
26484;SDS011;18083;50.560;7.262;2023-04-15T13:44:23;4.72;;;3.70;;
26484;SDS011;18083;50.560;7.262;2023-04-15T13:46:51;2.67;;;2.45;;
26484;SDS011;18083;50.560;7.262;2023-04-15T13:49:18;3.62;;;3.17;;
26484;SDS011;18083;50.560;7.262;2023-04-15T13:51:45;4.83;;;2.75;;
26484;SDS011;18083;50.560;7.262;2023-04-15T13:54:12;3.00;;;2.80;;
26484;SDS011;18083;50.560;7.262;2023-04-15T13:56:40;3.08;;;2.72;;
26484;SDS011;18083;50.560;7.262;2023-04-15T13:59:07;3.10;;;2.80;;
26484;SDS011;18083;50.560;7.262;2023-04-15T14:01:34;3.27;;;2.83;;
26484;SDS011;18083;50.560;7.262;2023-04-15T14:04:02;6.22;;;3.10;;
26484;SDS011;18083;50.560;7.262;2023-04-15T14:06:29;3.00;;;2.55;;
26484;SDS011;18083;50.560;7.262;2023-04-15T14:08:57;4.87;;;3.80;;
26484;SDS011;18083;50.560;7.262;2023-04-15T14:11:24;3.05;;;2.85;;
26484;SDS011;18083;50.560;7.262;2023-04-15T14:13:51;3.77;;;3.45;;
26484;SDS011;18083;50.560;7.262;2023-04-15T14:16:19;3.58;;;3.25;;
26484;SDS011;18083;50.560;7.262;2023-04-15T14:18:46;5.03;;;3.83;;
26484;SDS011;18083;50.560;7.262;2023-04-15T14:21:13;6.62;;;4.22;;
26484;SDS011;18083;50.560;7.262;2023-04-15T14:23:40;5.28;;;4.12;;
26484;SDS011;18083;50.560;7.262;2023-04-15T14:26:08;4.50;;;4.03;;
26484;SDS011;18083;50.560;7.262;2023-04-15T14:28:35;5.00;;;4.50;;
26484;SDS011;18083;50.560;7.262;2023-04-15T14:31:04;5.05;;;4.17;;
26484;SDS011;18083;50.560;7.262;2023-04-15T14:33:31;5.28;;;4.47;;
26484;SDS011;18083;50.560;7.262;2023-04-15T14:35:58;5.40;;;4.90;;
26484;SDS011;18083;50.560;7.262;2023-04-15T14:38:26;5.70;;;5.17;;
26484;SDS011;18083;50.560;7.262;2023-04-15T14:40:53;5.65;;;4.95;;
26484;SDS011;18083;50.560;7.262;2023-04-15T14:43:21;8.78;;;6.33;;
26484;SDS011;18083;50.560;7.262;2023-04-15T14:45:48;6.97;;;5.90;;
26484;SDS011;18083;50.560;7.262;2023-04-15T14:48:16;6.65;;;6.00;;
26484;SDS011;18083;50.560;7.262;2023-04-15T14:50:44;8.45;;;5.87;;
26484;SDS011;18083;50.560;7.262;2023-04-15T14:53:11;7.17;;;6.47;;
26484;SDS011;18083;50.560;7.262;2023-04-15T14:55:39;6.65;;;6.00;;
26484;SDS011;18083;50.560;7.262;2023-04-15T14:58:06;9.53;;;7.42;;
26484;SDS011;18083;50.560;7.262;2023-04-15T15:00:34;9.40;;;7.00;;
26484;SDS011;18083;50.560;7.262;2023-04-15T15:03:03;10.15;;;6.90;;
26484;SDS011;18083;50.560;7.262;2023-04-15T15:05:32;9.15;;;7.20;;
26484;SDS011;18083;50.560;7.262;2023-04-15T15:07:59;8.07;;;7.10;;
26484;SDS011;18083;50.560;7.262;2023-04-15T15:10:27;9.73;;;8.17;;